createdAt,value
2016-11-15T00:00:20.721Z,69.28
2016-11-15T00:01:30.687Z,69
2016-11-15T00:02:41.003Z,68.9
2016-11-15T00:03:50.984Z,69.15
2016-11-15T00:05:01.321Z,69.09
2016-11-15T00:06:11.623Z,69
2016-11-15T00:07:21.621Z,69.15
2016-11-15T00:08:31.916Z,68.96
2016-11-15T00:09:42.242Z,69.15
2016-11-15T00:10:52.279Z,68.87
2016-11-15T00:12:02.272Z,68.87
2016-11-15T00:13:12.538Z,69.15
2016-11-15T00:14:22.836Z,69.15
2016-11-15T00:15:32.857Z,69.06
2016-11-15T00:16:43.169Z,68.87
2016-11-15T00:17:52.852Z,68.96
2016-11-15T00:19:03.246Z,69.25
2016-11-15T00:20:13.531Z,68.96
2016-11-15T00:21:23.897Z,68.87
2016-11-15T00:22:33.899Z,69.15
2016-11-15T00:23:43.587Z,69.25
2016-11-15T00:24:53.915Z,68.96
2016-11-15T00:26:03.929Z,68.96
2016-11-15T00:27:14.476Z,69.34
2016-11-15T00:28:24.159Z,69.25
2016-11-15T00:29:34.443Z,69.34
2016-11-15T00:30:44.494Z,69.06
2016-11-15T00:31:54.178Z,69.34
2016-11-15T00:33:04.158Z,69.34
2016-11-15T00:34:14.178Z,68.87
2016-11-15T00:35:24.475Z,69.34
2016-11-15T00:36:34.473Z,69.06
2016-11-15T00:37:44.763Z,69.06
2016-11-15T00:38:55.078Z,68.96
2016-11-15T00:40:05.383Z,69.15
2016-11-15T00:41:15.379Z,69.06
2016-11-15T00:42:25.691Z,69.06
2016-11-15T00:43:36.004Z,68.87
2016-11-15T00:44:45.974Z,69.06
2016-11-15T00:45:55.647Z,69.06
2016-11-15T00:47:05.654Z,69.34
2016-11-15T00:48:15.960Z,69.34
2016-11-15T00:49:25.973Z,69.34
2016-11-15T00:50:36.279Z,68.96
2016-11-15T00:51:46.263Z,68.87
2016-11-15T00:52:56.583Z,69.34
2016-11-15T00:54:06.928Z,69.25
2016-11-15T00:55:16.917Z,69.06
2016-11-15T00:56:27.239Z,69.44
2016-11-15T00:57:37.234Z,69.15
2016-11-15T00:58:47.221Z,69.25
2016-11-15T00:59:56.919Z,68.96
2016-11-15T01:01:06.927Z,69.72
2016-11-15T01:02:16.928Z,69.25
2016-11-15T01:03:26.923Z,69.82
2016-11-15T01:04:36.894Z,69.34
2016-11-15T01:05:46.954Z,69.44
2016-11-15T01:06:56.912Z,69.34
2016-11-15T01:08:06.935Z,68.96
2016-11-15T01:09:17.496Z,69.15
2016-11-15T01:10:27.788Z,69.78
2016-11-15T01:11:38.086Z,69.59
2016-11-15T01:12:48.373Z,69.21
2016-11-15T01:13:58.658Z,69.15
2016-11-15T01:15:08.969Z,69.4
2016-11-15T01:16:18.650Z,69.4
2016-11-15T01:17:28.636Z,69.87
2016-11-15T01:18:38.336Z,69.59
2016-11-15T01:19:48.333Z,69.4
2016-11-15T01:20:58.022Z,69.59
2016-11-15T01:22:08.044Z,69.59
2016-11-15T01:23:17.730Z,69.4
2016-11-15T01:24:28.071Z,69.49
2016-11-15T01:25:38.037Z,69.78
2016-11-15T01:26:48.035Z,69.49
2016-11-15T01:27:58.052Z,69.31
2016-11-15T01:29:08.395Z,69.49
2016-11-15T01:30:18.704Z,69.49
2016-11-15T01:31:29.017Z,69.49
2016-11-15T01:32:38.403Z,69.59
2016-11-15T01:33:48.125Z,69.68
2016-11-15T01:34:58.150Z,69.49
2016-11-15T01:36:08.451Z,69.59
2016-11-15T01:37:18.122Z,69.31
2016-11-15T01:38:28.412Z,69.4
2016-11-15T01:39:38.747Z,69.59
2016-11-15T01:40:47.810Z,69.59
2016-11-15T01:41:58.131Z,69.59
2016-11-15T01:43:08.123Z,69.49
2016-11-15T01:44:17.493Z,69.49
2016-11-15T01:45:27.814Z,69.87
2016-11-15T01:46:37.489Z,69.4
2016-11-15T01:47:47.824Z,69.21
2016-11-15T01:48:58.142Z,69.31
2016-11-15T01:50:08.136Z,68.84
2016-11-15T01:51:18.429Z,69.02
2016-11-15T01:52:28.419Z,68.93
2016-11-15T01:53:38.409Z,69.02
2016-11-15T01:54:48.697Z,68.84
2016-11-15T01:55:58.691Z,69.02
2016-11-15T01:57:08.376Z,68.93
2016-11-15T01:58:18.683Z,68.93
2016-11-15T01:59:28.682Z,69.12
2016-11-15T02:00:38.977Z,69.31
2016-11-15T02:01:48.996Z,69.21
2016-11-15T02:02:58.999Z,69.31
2016-11-15T02:04:09.307Z,69.21
2016-11-15T02:05:19.668Z,69.31
2016-11-15T02:06:29.339Z,69.12
2016-11-15T02:07:39.668Z,69.12
2016-11-15T02:08:49.986Z,69.31
2016-11-15T02:10:00.274Z,69.02
2016-11-15T02:11:09.984Z,69.4
2016-11-15T02:12:20.275Z,69.12
2016-11-15T02:13:30.260Z,69.21
2016-11-15T02:14:39.626Z,69.4
2016-11-15T02:15:49.582Z,69.02
2016-11-15T02:16:59.930Z,69.02
2016-11-15T02:18:09.924Z,69.31
2016-11-15T02:19:19.949Z,68.93
2016-11-15T02:20:30.496Z,69.12
2016-11-15T02:21:41.054Z,68.84
2016-11-15T02:22:51.048Z,69.02
2016-11-15T02:24:01.336Z,69.4
2016-11-15T02:25:11.327Z,69.4
2016-11-15T02:26:21.321Z,69.31
2016-11-15T02:27:31.635Z,69.31
2016-11-15T02:28:41.924Z,69.02
2016-11-15T02:29:51.917Z,68.93
2016-11-15T02:31:01.619Z,68.93
2016-11-15T02:32:11.925Z,68.84
2016-11-15T02:33:21.926Z,68.84
2016-11-15T02:34:32.236Z,68.93
2016-11-15T02:35:42.540Z,68.84
2016-11-15T02:36:52.845Z,68.84
2016-11-15T02:38:03.124Z,69.02
2016-11-15T02:39:13.433Z,69.12
2016-11-15T02:40:23.750Z,69.31
2016-11-15T02:41:34.043Z,69.12
2016-11-15T02:42:44.342Z,69.31
2016-11-15T02:43:54.021Z,69.31
2016-11-15T02:45:03.997Z,69.31
2016-11-15T02:46:13.668Z,69.12
2016-11-15T02:47:23.700Z,69.31
2016-11-15T02:48:33.997Z,69.21
2016-11-15T02:49:43.979Z,69.4
2016-11-15T02:50:54.252Z,69.31
2016-11-15T02:52:04.251Z,69.02
2016-11-15T02:53:14.564Z,69.4
2016-11-15T02:54:24.883Z,69.31
2016-11-15T02:55:35.155Z,68.93
2016-11-15T02:56:45.471Z,68.93
2016-11-15T02:57:55.779Z,69.4
2016-11-15T02:59:06.090Z,69.4
2016-11-15T03:00:16.388Z,69.4
2016-11-15T03:01:26.368Z,69.21
2016-11-15T03:32:48.880Z,69.17
2016-11-15T03:33:59.155Z,69.35
2016-11-15T03:35:09.456Z,70.3
2016-11-15T03:36:19.737Z,71.25
2016-11-15T03:37:30.025Z,71.43
2016-11-15T03:38:40.311Z,72.47
2016-11-15T03:39:50.286Z,72
2016-11-15T03:41:00.260Z,72.19
2016-11-15T03:42:09.936Z,71.72
2016-11-15T03:43:19.909Z,72.22
2016-11-15T03:44:29.900Z,72.32
2016-11-15T03:45:39.915Z,71.66
2016-11-15T03:46:49.896Z,71.75
2016-11-15T03:47:59.876Z,71.66
2016-11-15T03:49:09.876Z,71.47
2016-11-15T03:50:19.869Z,71.37
2016-11-15T03:51:29.848Z,70.84
2016-11-15T03:52:39.832Z,71.12
2016-11-15T03:53:49.815Z,70.65
2016-11-15T03:54:59.821Z,70.65
2016-11-15T03:56:10.118Z,70.56
2016-11-15T03:57:20.096Z,70.47
2016-11-15T03:58:30.066Z,70.28
2016-11-15T03:59:40.378Z,70.28
2016-11-15T04:00:50.355Z,70.28
2016-11-15T04:02:00.388Z,70.21
2016-11-15T04:03:10.681Z,70.4
2016-11-15T04:04:20.988Z,70.03
2016-11-15T04:05:31.271Z,69.74
2016-11-15T04:06:41.279Z,69.27
2016-11-15T04:07:51.567Z,69.56
2016-11-15T04:09:01.232Z,69.84
2016-11-15T04:10:11.535Z,69.93
2016-11-15T04:11:21.515Z,69.27
2016-11-15T04:12:31.809Z,69.46
2016-11-15T04:13:42.111Z,69.56
2016-11-15T04:14:51.777Z,69.37
2016-11-15T04:16:01.777Z,69.27
2016-11-15T04:17:11.464Z,69.27
2016-11-15T04:18:21.124Z,69.27
2016-11-15T04:19:31.094Z,69.27
2016-11-15T04:20:41.379Z,68.99
2016-11-15T04:21:51.683Z,68.8
2016-11-15T04:23:01.368Z,68.99
2016-11-15T04:24:11.043Z,68.99
2016-11-15T04:25:21.342Z,69.18
2016-11-15T04:26:31.345Z,69.09
2016-11-15T04:27:41.014Z,68.99
2016-11-15T04:28:51.293Z,69.37
2016-11-15T04:30:01.272Z,69.27
2016-11-15T04:31:11.253Z,69.27
2016-11-15T04:32:21.571Z,69.37
2016-11-15T04:33:31.254Z,69.18
2016-11-15T04:34:41.756Z,69.27
2016-11-15T04:35:52.047Z,69.37
2016-11-15T04:37:01.961Z,69.46
2016-11-15T04:38:12.256Z,69.37
2016-11-15T04:39:22.580Z,69.27
2016-11-15T04:40:32.555Z,69.27
2016-11-15T04:41:42.884Z,69.27
2016-11-15T04:42:52.875Z,69.27
2016-11-15T04:44:02.871Z,69.27
2016-11-15T04:45:12.861Z,68.8
2016-11-15T04:46:23.158Z,68.9
2016-11-15T04:47:32.825Z,69.09
2016-11-15T04:48:42.831Z,68.99
2016-11-15T04:49:53.122Z,68.8
2016-11-15T04:51:03.434Z,69.27
2016-11-15T04:52:13.424Z,68.99
2016-11-15T04:53:23.398Z,69.18
2016-11-15T04:54:33.375Z,69.09
2016-11-15T04:55:43.365Z,69.09
2016-11-15T04:56:53.349Z,69.18
2016-11-15T04:58:03.106Z,69.27
2016-11-15T04:59:12.982Z,69.27
2016-11-15T05:00:22.699Z,68.99
2016-11-15T05:01:32.984Z,69.18
2016-11-15T05:02:42.641Z,69.46
2016-11-15T05:03:52.318Z,69.27
2016-11-15T05:05:02.629Z,69.27
2016-11-15T05:06:12.913Z,69.27
2016-11-15T05:07:23.198Z,69.27
2016-11-15T05:08:33.173Z,69.18
2016-11-15T05:09:43.446Z,69.09
2016-11-15T05:10:54.284Z,69.27
2016-11-15T05:12:04.995Z,68.99
2016-11-15T05:13:15.291Z,69.37
2016-11-15T05:14:25.769Z,68.9
2016-11-15T05:15:36.099Z,69.18
2016-11-15T05:16:47.403Z,69.09
2016-11-15T05:17:57.300Z,69.27
2016-11-15T05:19:07.573Z,68.99
2016-11-15T05:20:17.858Z,69.27
2016-11-15T05:21:28.044Z,69.27
2016-11-15T05:22:38.339Z,68.9
2016-11-15T05:23:48.308Z,68.9
2016-11-15T05:25:00.200Z,68.99
2016-11-15T05:26:11.089Z,68.8
2016-11-15T05:27:21.064Z,68.8
2016-11-15T05:28:31.760Z,68.9
2016-11-15T05:29:43.173Z,68.71
2016-11-15T05:30:53.467Z,69.09
2016-11-15T05:32:03.159Z,68.9
2016-11-15T05:33:13.410Z,68.9
2016-11-15T05:34:23.416Z,68.99
2016-11-15T05:35:33.088Z,69.09
2016-11-15T05:36:43.397Z,68.8
2016-11-15T05:37:53.681Z,68.8
2016-11-15T05:39:03.343Z,68.8
2016-11-15T05:40:13.637Z,68.8
2016-11-15T05:41:23.607Z,69.09
2016-11-15T05:42:33.589Z,68.99
2016-11-15T05:43:43.262Z,68.9
2016-11-15T05:44:53.254Z,68.9
2016-11-15T05:46:03.540Z,68.99
2016-11-15T05:47:13.213Z,68.8
2016-11-15T05:48:23.189Z,68.8
2016-11-15T05:49:32.853Z,68.9
2016-11-15T05:50:43.150Z,68.9
2016-11-15T05:51:52.821Z,68.8
2016-11-15T05:53:02.803Z,68.9
2016-11-15T05:54:13.076Z,68.9
2016-11-15T05:55:23.362Z,68.8
2016-11-15T05:56:33.338Z,68.8
2016-11-15T05:57:43.621Z,68.99
2016-11-15T05:58:53.590Z,68.8
2016-11-15T06:00:03.909Z,68.8
2016-11-15T06:01:13.576Z,68.9
2016-11-15T06:02:23.238Z,69.09
2016-11-15T06:03:33.220Z,68.8
2016-11-15T06:04:43.190Z,68.8
2016-11-15T06:05:52.867Z,68.8
2016-11-15T06:07:02.840Z,68.8
2016-11-15T06:08:12.838Z,69.09
2016-11-15T06:09:23.147Z,68.9
2016-11-15T06:10:33.124Z,69.09
2016-11-15T06:11:43.415Z,68.9
2016-11-15T06:12:53.699Z,68.9
2016-11-15T06:14:03.992Z,68.8
2016-11-15T06:15:14.260Z,68.93
2016-11-15T06:16:24.234Z,68.9
2016-11-15T06:17:34.509Z,68.71
2016-11-15T06:18:44.792Z,68.74
2016-11-15T06:19:55.089Z,68.61
2016-11-15T06:21:05.394Z,68.93
2016-11-15T06:22:15.707Z,69.12
2016-11-15T06:23:25.684Z,68.74
2016-11-15T06:24:35.664Z,68.55
2016-11-15T06:25:45.957Z,68.55
2016-11-15T06:26:56.243Z,67.98
2016-11-15T06:28:06.510Z,67.98
2016-11-15T06:29:16.814Z,68.65
2016-11-15T06:30:26.470Z,68.65
2016-11-15T06:31:36.445Z,68.65
2016-11-15T06:32:46.726Z,68.74
2016-11-15T06:33:56.713Z,69.12
2016-11-15T06:35:06.986Z,68.08
2016-11-15T06:36:17.275Z,68.17
2016-11-15T06:37:27.258Z,68.46
2016-11-15T06:38:37.234Z,68.17
2016-11-15T06:39:47.513Z,68.55
2016-11-15T06:40:57.476Z,68.74
2016-11-15T06:42:07.456Z,67.98
2016-11-15T06:43:17.421Z,68.27
2016-11-15T06:44:27.383Z,68.27
2016-11-15T06:45:37.673Z,68.36
2016-11-15T06:46:47.657Z,68.36
2016-11-15T06:47:57.943Z,68.36
2016-11-15T06:49:07.609Z,68.3
2016-11-15T06:50:17.581Z,68.36
2016-11-15T06:51:27.567Z,68.3
2016-11-15T06:52:37.556Z,68.68
2016-11-15T06:53:47.882Z,68.59
2016-11-15T06:54:58.162Z,68.4
2016-11-15T06:56:08.464Z,68.4
2016-11-15T06:57:18.760Z,68.3
2016-11-15T06:58:28.461Z,68.21
2016-11-15T06:59:38.772Z,68.68
2016-11-15T07:00:48.740Z,68.49
2016-11-15T07:01:59.036Z,68.68
2016-11-15T07:03:09.023Z,68.49
2016-11-15T07:04:19.310Z,68.4
2016-11-15T07:05:29.710Z,68.02
2016-11-15T07:06:40.020Z,67.93
2016-11-15T07:07:49.998Z,67.93
2016-11-15T07:08:59.964Z,68.33
2016-11-15T07:10:09.952Z,68.62
2016-11-15T07:11:20.163Z,68.62
2016-11-15T07:12:30.126Z,68.43
2016-11-15T07:13:40.113Z,68.62
2016-11-15T07:14:50.089Z,68.52
2016-11-15T07:16:00.365Z,68.52
2016-11-15T07:17:10.065Z,68.15
2016-11-15T07:18:20.347Z,68.71
2016-11-15T07:19:30.629Z,68.52
2016-11-15T07:20:40.612Z,68.43
2016-11-15T07:21:50.591Z,68.43
2016-11-15T07:23:00.857Z,68.43
2016-11-15T07:24:10.840Z,68.43
2016-11-15T07:25:21.148Z,68.52
2016-11-15T07:26:31.436Z,68.37
2016-11-15T07:27:41.735Z,68.52
2016-11-15T07:28:51.702Z,68.46
2016-11-15T07:30:01.998Z,68.46
2016-11-15T07:31:12.294Z,68.65
2016-11-15T07:32:22.587Z,68.65
2016-11-15T07:33:31.973Z,68.46
2016-11-15T07:34:41.672Z,68.56
2016-11-15T07:35:51.658Z,68.56
2016-11-15T07:37:01.628Z,68.46
2016-11-15T07:38:12.178Z,68.37
2016-11-15T07:39:22.148Z,68.46
2016-11-15T07:40:32.148Z,68.65
2016-11-15T07:41:41.814Z,68.08
2016-11-15T07:42:52.106Z,68.65
2016-11-15T07:44:02.107Z,68.37
2016-11-15T07:45:11.784Z,68.46
2016-11-15T07:46:22.087Z,68.46
2016-11-15T07:47:32.384Z,68.46
2016-11-15T07:48:42.349Z,68.46
2016-11-15T07:49:52.846Z,68.37
2016-11-15T07:51:03.137Z,68.21
2016-11-15T07:52:13.587Z,68.4
2016-11-15T07:53:23.553Z,68.5
2016-11-15T07:54:33.597Z,68.31
2016-11-15T07:55:43.882Z,68.31
2016-11-15T07:56:54.201Z,68.59
2016-11-15T07:58:04.189Z,68.69
2016-11-15T07:59:14.167Z,68.5
2016-11-15T08:00:24.140Z,68.5
2016-11-15T08:01:34.137Z,68.59
2016-11-15T08:02:44.139Z,68.31
2016-11-15T08:03:54.408Z,68.79
2016-11-15T08:05:04.693Z,68.73
2016-11-15T08:06:14.370Z,68.35
2016-11-15T08:07:24.347Z,68.06
2016-11-15T08:08:34.327Z,68.15
2016-11-15T08:09:44.632Z,68.15
2016-11-15T08:10:54.958Z,67.77
2016-11-15T08:12:05.247Z,67.96
2016-11-15T08:13:14.920Z,68.44
2016-11-15T08:14:25.213Z,68.63
2016-11-15T08:15:35.500Z,68.63
2016-11-15T08:16:45.173Z,68.66
2016-11-15T08:17:55.165Z,68.76
2016-11-15T08:19:05.522Z,68.76
2016-11-15T08:20:15.204Z,68.38
2016-11-15T08:21:25.169Z,68.57
2016-11-15T08:22:35.466Z,68.19
2016-11-15T08:23:45.894Z,68.76
2016-11-15T08:24:55.566Z,68.29
2016-11-15T08:26:05.869Z,68.48
2016-11-15T08:27:15.844Z,68.38
2016-11-15T08:28:25.810Z,68.29
2016-11-15T08:29:36.086Z,68.38
2016-11-15T08:30:46.065Z,68.19
2016-11-15T08:31:56.064Z,68.19
2016-11-15T08:33:06.307Z,68.76
2016-11-15T08:34:16.280Z,68.48
2016-11-15T08:35:26.271Z,68.66
2016-11-15T08:36:36.619Z,68.85
2016-11-15T08:37:46.913Z,68.95
2016-11-15T08:38:56.890Z,68.76
2016-11-15T08:40:06.855Z,68.19
2016-11-15T08:41:17.362Z,68.85
2016-11-15T08:42:27.665Z,69.23
2016-11-15T08:43:37.981Z,68.85
2016-11-15T08:44:47.969Z,68.76
2016-11-15T08:45:58.299Z,68.95
2016-11-15T08:47:08.286Z,68.95
2016-11-15T08:48:18.568Z,68.76
2016-11-15T08:49:28.846Z,68.76
2016-11-15T08:50:39.132Z,69.33
2016-11-15T08:51:49.421Z,69.61
2016-11-15T08:52:59.419Z,69.23
2016-11-15T08:54:09.724Z,69.8
2016-11-15T08:55:20.006Z,69.9
2016-11-15T08:56:30.297Z,69.57
2016-11-15T08:57:40.581Z,69.52
2016-11-15T08:58:50.865Z,69.13
2016-11-15T09:00:01.155Z,69.52
2016-11-15T09:01:11.142Z,68.85
2016-11-15T09:02:20.811Z,67.75
2016-11-15T09:03:30.155Z,66.99
2016-11-15T09:04:40.122Z,67.02
2016-11-15T09:05:50.098Z,66.93
2016-11-15T09:06:59.783Z,67.59
2016-11-15T09:08:09.756Z,66.55
2016-11-15T09:09:20.029Z,66.2
2016-11-15T09:10:30.344Z,66.01
2016-11-15T09:11:40.665Z,65.86
2016-11-15T09:12:50.644Z,66.42
2016-11-15T09:14:00.992Z,67.09
2016-11-15T09:15:11.298Z,67.28
2016-11-15T09:16:20.958Z,66.71
2016-11-15T09:17:31.236Z,66.71
2016-11-15T09:18:40.938Z,66.52
2016-11-15T09:19:50.612Z,65.89
2016-11-15T09:21:00.581Z,65.25
2016-11-15T09:22:10.876Z,66.49
2016-11-15T09:23:20.848Z,66.87
2016-11-15T09:24:30.847Z,67.41
2016-11-15T09:25:40.849Z,67.6
2016-11-15T09:26:51.134Z,68.13
2016-11-15T09:28:01.119Z,67.85
2016-11-15T09:29:11.403Z,68.13
2016-11-15T09:30:21.694Z,68.42
2016-11-15T09:31:31.984Z,68.99
2016-11-15T09:32:41.972Z,68.61
2016-11-15T09:33:52.847Z,68.71
2016-11-15T09:35:02.825Z,68.77
2016-11-15T09:36:12.818Z,68.58
2016-11-15T09:37:22.801Z,69.15
2016-11-15T09:38:33.101Z,69.15
2016-11-15T09:39:43.132Z,69.05
2016-11-15T09:40:53.444Z,69.34
2016-11-15T09:42:03.119Z,69.05
2016-11-15T09:43:13.390Z,68.29
2016-11-15T09:44:23.363Z,68.58
2016-11-15T09:45:33.654Z,68.48
2016-11-15T09:46:44.161Z,68.67
2016-11-15T09:47:53.822Z,68.48
2016-11-15T09:49:04.140Z,68.96
2016-11-15T09:50:14.145Z,68.86
2016-11-15T09:51:24.430Z,68.96
2016-11-15T09:52:34.413Z,68.77
2016-11-15T09:53:44.704Z,68.77
2016-11-15T09:54:54.994Z,67.82
2016-11-15T09:56:05.296Z,67.82
2016-11-15T09:57:15.602Z,68.04
2016-11-15T09:58:25.901Z,68.19
2016-11-15T09:59:35.883Z,68.29
2016-11-15T10:00:45.873Z,68.33
2016-11-15T10:01:55.888Z,67.76
2016-11-15T10:03:06.189Z,67.85
2016-11-15T10:04:16.157Z,67.85
2016-11-15T10:05:26.148Z,68.29
2016-11-15T10:06:36.443Z,68.86
2016-11-15T10:07:46.740Z,68.9
2016-11-15T10:08:56.714Z,68.29
2016-11-15T10:10:06.706Z,68.23
2016-11-15T10:11:16.079Z,67.85
2016-11-15T10:12:26.601Z,68.04
2016-11-15T10:13:36.599Z,68.13
2016-11-15T10:14:46.925Z,67.76
2016-11-15T10:15:56.901Z,67.76
2016-11-15T10:17:06.891Z,67.19
2016-11-15T10:18:16.888Z,67.13
2016-11-15T10:19:26.867Z,66.74
2016-11-15T10:20:36.848Z,67.13
2016-11-15T10:21:47.156Z,67.03
2016-11-15T10:22:57.436Z,66.94
2016-11-15T10:24:07.734Z,67.35
2016-11-15T10:25:17.418Z,67.16
2016-11-15T10:26:27.728Z,66.87
2016-11-15T10:27:37.700Z,67.44
2016-11-15T10:28:47.998Z,67.54
2016-11-15T10:29:58.312Z,67.35
2016-11-15T10:31:08.594Z,67.25
2016-11-15T10:32:18.905Z,66.97
2016-11-15T10:33:28.901Z,67.63
2016-11-15T10:34:38.878Z,67.25
2016-11-15T10:35:49.158Z,67.25
2016-11-15T10:36:59.162Z,68.01
2016-11-15T10:38:09.465Z,67.63
2016-11-15T10:39:19.462Z,67.63
2016-11-15T10:40:29.698Z,68.01
2016-11-15T10:41:39.691Z,67.98
2016-11-15T10:42:49.361Z,68.01
2016-11-15T10:43:59.697Z,67.88
2016-11-15T10:45:10.004Z,68.36
2016-11-15T10:46:20.321Z,68.21
2016-11-15T10:47:30.667Z,68.3
2016-11-15T10:48:40.662Z,67.88
2016-11-15T10:49:50.950Z,68.3
2016-11-15T10:51:01.262Z,68.01
2016-11-15T10:52:11.246Z,68.46
2016-11-15T10:53:21.535Z,68.36
2016-11-15T10:54:30.918Z,68.27
2016-11-15T10:55:40.607Z,68.36
2016-11-15T10:56:50.908Z,68.46
2016-11-15T10:58:00.928Z,68.36
2016-11-15T10:59:10.921Z,67.98
2016-11-15T11:00:21.233Z,67.92
2016-11-15T11:01:31.536Z,67.79
2016-11-15T11:02:41.848Z,68.3
2016-11-15T11:03:52.140Z,68.27
2016-11-15T11:05:02.450Z,68.74
2016-11-15T11:06:12.747Z,68.17
2016-11-15T11:07:22.761Z,68.46
2016-11-15T11:08:32.509Z,68.36
2016-11-15T11:09:43.377Z,68.17
2016-11-15T11:10:54.311Z,68.84
2016-11-15T11:12:04.612Z,68.84
2016-11-15T11:13:14.837Z,68.74
2016-11-15T11:14:25.536Z,68.74
2016-11-15T11:15:36.046Z,68.74
2016-11-15T11:16:46.357Z,68.65
2016-11-15T11:17:56.350Z,68.65
2016-11-15T11:19:06.327Z,68.65
2016-11-15T11:20:16.666Z,68.65
2016-11-15T11:21:27.639Z,68.65
2016-11-15T11:22:38.165Z,68.74
2016-11-15T11:23:48.478Z,68.93
2016-11-15T11:24:58.758Z,68.93
2016-11-15T11:26:08.770Z,68.17
2016-11-15T11:27:19.286Z,67.88
2016-11-15T11:28:30.045Z,68.07
2016-11-15T11:29:40.037Z,67.88
2016-11-15T11:30:51.684Z,67.88
2016-11-15T11:32:01.986Z,68.17
2016-11-15T11:33:12.273Z,67.63
2016-11-15T11:34:22.814Z,67.82
2016-11-15T11:46:21.328Z,69.69
2016-11-15T11:47:31.849Z,69.66
2016-11-15T11:49:45.688Z,70.04
2016-11-15T11:50:55.980Z,70.23
2016-11-15T14:36:02.643Z,71.22
2016-11-15T14:37:12.621Z,71.22
2016-11-15T14:38:22.601Z,71.41
2016-11-15T14:39:32.280Z,71.37
2016-11-15T14:40:42.559Z,71.56
2016-11-15T14:41:52.550Z,71.66
2016-11-15T14:43:02.538Z,71.94
2016-11-15T14:44:12.857Z,71.75
2016-11-15T14:45:23.152Z,71.84
2016-11-15T14:46:33.448Z,71.75
2016-11-15T14:47:43.716Z,72.03
2016-11-15T14:48:54.027Z,72.13
2016-11-15T14:50:03.699Z,71.62
2016-11-15T14:51:13.992Z,71.52
2016-11-15T14:52:23.960Z,71.71
2016-11-15T14:53:33.957Z,71.9
2016-11-15T14:54:43.636Z,71.62
2016-11-15T14:55:53.594Z,71.43
2016-11-15T14:57:03.594Z,71.71
2016-11-15T14:58:13.886Z,71.77
2016-11-15T14:59:23.565Z,71.9
2016-11-15T15:00:33.558Z,71.77
2016-11-15T15:01:43.584Z,71.67
2016-11-15T15:02:53.867Z,71.11
2016-11-15T15:04:03.262Z,71.48
2016-11-15T15:05:13.554Z,71.39
2016-11-15T15:06:23.533Z,71.3
2016-11-15T15:07:33.536Z,71.67
2016-11-15T15:08:43.831Z,71.67
2016-11-15T15:09:54.162Z,71.11
2016-11-15T15:11:04.156Z,71.01
2016-11-15T15:12:14.124Z,71.01
2016-11-15T15:13:23.783Z,71.01
2016-11-15T15:14:34.081Z,71.01
2016-11-15T15:15:44.361Z,71.01
2016-11-15T15:16:54.407Z,71.11
2016-11-15T15:18:04.694Z,70.73
2016-11-15T15:19:14.686Z,70.54
2016-11-15T15:20:24.659Z,70.54
2016-11-15T15:21:34.949Z,70.73
2016-11-15T15:22:44.645Z,70.82
2016-11-15T15:23:54.621Z,71.01
2016-11-15T15:25:04.641Z,71.39
2016-11-15T15:26:14.649Z,71.77
2016-11-15T15:27:24.619Z,71.58
2016-11-15T15:28:34.614Z,71.64
2016-11-15T15:29:44.596Z,71.45
2016-11-15T15:30:54.878Z,71.45
2016-11-15T15:32:04.846Z,71.17
2016-11-15T15:33:15.140Z,71.17
2016-11-15T15:34:24.831Z,71.55
2016-11-15T15:35:35.137Z,71.26
2016-11-15T15:36:45.168Z,71.26
2016-11-15T15:37:54.843Z,71.45
2016-11-15T15:39:05.156Z,71.26
2016-11-15T15:40:15.478Z,71.64
2016-11-15T15:41:25.772Z,71.36
2016-11-15T15:42:34.839Z,70.88
2016-11-15T15:43:44.562Z,70.98
2016-11-15T15:44:54.575Z,70.59
2016-11-15T15:46:04.863Z,70.59
2016-11-15T15:47:15.155Z,70.4
2016-11-15T15:48:25.439Z,70.69
2016-11-15T15:49:35.745Z,70.98
2016-11-15T15:50:45.732Z,70.78
2016-11-15T15:51:56.034Z,70.78
2016-11-15T15:53:06.334Z,70.59
2016-11-15T15:54:16.653Z,71.07
2016-11-15T15:55:26.329Z,70.88
2016-11-15T15:56:36.327Z,70.69
2016-11-15T15:57:46.680Z,70.88
2016-11-15T15:58:56.427Z,70.98
2016-11-15T16:00:06.763Z,70.98
2016-11-15T16:01:17.112Z,71.07
2016-11-15T16:02:27.102Z,70.88
2016-11-15T16:03:37.746Z,70.59
2016-11-15T16:04:47.799Z,70.69
2016-11-15T16:05:58.112Z,70.69
2016-11-15T16:07:08.453Z,70.59
2016-11-15T16:08:18.491Z,70.31
2016-11-15T16:09:27.936Z,70.69
2016-11-15T16:10:38.320Z,70.59
2016-11-15T16:11:47.756Z,70.69
2016-11-15T16:12:57.747Z,70.4
2016-11-15T16:14:07.799Z,70.59
2016-11-15T16:15:17.886Z,70.21
2016-11-15T16:16:28.312Z,70.69
2016-11-15T16:17:38.664Z,70.4
2016-11-15T16:18:49.083Z,70.59
2016-11-15T16:19:59.392Z,70.4
2016-11-15T16:21:09.726Z,70.4
2016-11-15T16:22:20.032Z,70.31
2016-11-15T16:23:30.352Z,70.88
2016-11-15T16:24:40.366Z,70.4
2016-11-15T16:25:50.711Z,70.5
2016-11-15T16:27:00.402Z,70.59
2016-11-15T16:28:10.394Z,70.5
2016-11-15T16:29:20.387Z,70.59
2016-11-15T16:30:30.710Z,70.88
2016-11-15T16:31:40.403Z,70.69
2016-11-15T16:32:50.770Z,70.88
2016-11-15T16:34:01.088Z,70.78
2016-11-15T16:35:11.386Z,70.98
2016-11-15T16:36:21.400Z,70.88
2016-11-15T16:37:31.733Z,70.69
2016-11-15T16:38:42.046Z,70.78
2016-11-15T16:39:52.057Z,70.98
2016-11-15T16:41:02.377Z,70.98
2016-11-15T16:42:12.681Z,70.88
2016-11-15T16:43:22.961Z,70.98
2016-11-15T16:44:33.379Z,70.98
2016-11-15T16:45:43.693Z,70.98
2016-11-15T16:46:53.727Z,70.98
2016-11-15T16:48:04.105Z,70.98
2016-11-15T16:49:13.814Z,70.88
2016-11-15T16:50:23.824Z,71.01
2016-11-15T16:51:34.135Z,70.82
2016-11-15T16:52:44.176Z,70.69
2016-11-15T16:53:53.562Z,70.88
2016-11-15T16:55:03.645Z,70.78
2016-11-15T16:56:13.997Z,70.82
2016-11-15T16:57:24.342Z,70.88
2016-11-15T16:58:34.642Z,70.82
2016-11-15T16:59:44.735Z,70.78
2016-11-15T17:00:54.740Z,70.78
2016-11-15T17:02:05.162Z,71.01
2016-11-15T17:03:14.918Z,70.73
2016-11-15T17:04:25.291Z,70.35
2016-11-15T17:05:35.697Z,70.35
2016-11-15T17:06:46.005Z,70.63
2016-11-15T17:07:56.369Z,70.63
2016-11-15T17:09:06.428Z,70.54
2016-11-15T17:10:16.141Z,70.44
2016-11-15T17:11:26.441Z,70.63
2016-11-15T17:12:36.502Z,70.15
2016-11-15T17:13:46.550Z,70.35
2016-11-15T17:14:56.895Z,70.44
2016-11-15T17:16:07.031Z,70.44
2016-11-15T17:17:17.210Z,70.35
2016-11-15T17:18:27.237Z,70.63
2016-11-15T17:19:37.274Z,70.73
2016-11-15T17:20:46.991Z,70.63
2016-11-15T17:21:57.452Z,70.54
2016-11-15T17:23:07.798Z,71.11
2016-11-15T17:24:18.213Z,70.63
2016-11-15T17:25:28.582Z,70.82
2016-11-15T17:26:38.924Z,71.01
2016-11-15T17:27:48.637Z,71.01
2016-11-15T17:28:58.635Z,70.92
2016-11-15T17:30:08.935Z,70.63
2016-11-15T17:31:18.990Z,70.63
2016-11-15T17:32:28.879Z,70.92
2016-11-15T17:33:38.453Z,70.92
2016-11-15T17:34:48.528Z,71.01
2016-11-15T17:35:58.597Z,70.92
2016-11-15T17:37:09.113Z,70.82
2016-11-15T17:38:19.620Z,70.63
2016-11-15T17:39:29.111Z,70.59
2016-11-15T17:40:39.241Z,70.54
2016-11-15T17:41:49.337Z,70.63
2016-11-15T17:42:59.935Z,70.73
2016-11-15T17:44:10.248Z,70.73
2016-11-15T17:45:20.763Z,71.01
2016-11-15T17:46:30.990Z,71.01
2016-11-15T17:47:41.477Z,71.01
2016-11-15T17:48:51.822Z,71.01
2016-11-15T17:50:02.230Z,71.01
2016-11-15T17:51:12.738Z,70.92
2016-11-15T17:52:23.037Z,70.82
2016-11-15T17:53:33.273Z,70.82
2016-11-15T17:54:43.914Z,71.01
2016-11-15T17:55:54.486Z,71.01
2016-11-15T17:57:04.862Z,70.92
2016-11-15T17:58:14.937Z,70.82
2016-11-15T17:59:25.258Z,71.01
2016-11-15T18:00:34.764Z,70.92
2016-11-15T18:01:45.483Z,71.2
2016-11-15T18:02:55.881Z,70.54
2016-11-15T18:04:06.525Z,70.63
2016-11-15T18:05:16.957Z,70.54
2016-11-15T18:06:27.489Z,70.25
2016-11-15T18:07:37.572Z,70.35
2016-11-15T18:08:47.271Z,70.54
2016-11-15T18:09:57.610Z,70.63
2016-11-15T18:11:07.682Z,70.82
2016-11-15T18:12:18.040Z,71.01
2016-11-15T18:13:28.370Z,70.73
2016-11-15T18:14:38.064Z,71.01
2016-11-15T18:15:48.370Z,70.82
2016-11-15T18:16:58.696Z,70.82
2016-11-15T18:18:08.418Z,70.92
2016-11-15T18:19:18.748Z,70.82
2016-11-15T18:20:29.070Z,71.11
2016-11-15T18:21:39.431Z,71.01
2016-11-15T18:22:49.747Z,71.01
2016-11-15T18:24:00.067Z,70.73
2016-11-15T18:25:10.042Z,70.92
2016-11-15T18:26:20.343Z,70.92
2016-11-15T18:27:30.416Z,70.73
2016-11-15T18:28:40.715Z,71.01
2016-11-15T18:29:51.063Z,70.82
2016-11-15T18:31:01.346Z,70.82
2016-11-15T18:32:11.342Z,70.82